Time;durP1;ratioP1;P1;durP2;ratioP2;P2;SDS_P1;SDS_P2;PMS_P1;PMS_P2;Temp;Humidity;BMP_temperature;BMP_pressure;BME280_temperature;BME280_humidity;BME280_pressure;Samples;Min_cycle;Max_cycle;Signal;HPM_P1;HPM_P2
2023/02/28 00:02:06;;;;;;;;;;;;;;;;;;5037014;28;1732;-65
2023/02/28 00:04:31;;;;;;;;;;;;;;;;;;5051026;28;1083;-65
2023/02/28 00:06:56;;;;;;;;;;;;;;;;;;5050734;28;1256;-67
2023/02/28 00:09:21;;;;;;;;;;;;;;;;;;5050552;28;1201;-66
2023/02/28 00:11:46;;;;;;;;;;;;;;;;;;5050554;28;1084;-63
2023/02/28 00:14:12;;;;;;;;;;;;;;;;;;5050545;28;969;-67
2023/02/28 00:16:37;;;;;;;;;;;;;;;;;;5050887;28;1233;-66
2023/02/28 00:19:02;;;;;;;;;;;;;;;;;;5048078;28;1468;-67
2023/02/28 00:21:28;;;;;;;;;;;;;;;;;;5049264;28;1906;-67
2023/02/28 00:23:53;;;;;;;;;;;;;;;;;;5050717;28;1298;-69
2023/02/28 00:26:18;;;;;;;;;;;;;;;;;;5050324;28;1072;-64
2023/02/28 00:28:43;;;;;;;;;;;;;;;;;;5050585;28;1276;-61
2023/02/28 00:31:09;;;;;;;;;;;;;;;;;;5040172;28;1511;-68
2023/02/28 00:33:34;;;;;;;;;;;;;;;;;;5046638;28;1116;-67
2023/02/28 00:36:06;;;;;;;;;;;;;;;;;;5050736;28;1140;-67
2023/02/28 00:38:31;;;;;;;;;;;;;;;;;;5050236;28;1100;-66
2023/02/28 00:40:58;;;;;;;;;;;;;;;;;;5050404;28;1914;-66
2023/02/28 00:43:23;;;;;;;;;;;;;;;;;;5050141;28;1132;-65
2023/02/28 00:45:48;;;;;;;;;;;;;;;;;;5050379;28;1107;-65
2023/02/28 00:48:14;;;;;;;;;;;;;;;;;;5050477;28;1135;-65
2023/02/28 00:50:39;;;;;;;;;;;;;;;;;;5050645;28;1213;-67
2023/02/28 00:53:04;;;;;;;;;;;;;;;;;;5048709;28;1115;-68
2023/02/28 00:55:29;;;;;;;;;;;;;;;;;;5050262;28;1159;-65
2023/02/28 00:57:55;;;;;;;;;;;;;;;;;;5050132;28;1088;-66
2023/02/28 01:00:20;;;;;;;;;;;;;;;;;;5079058;28;1905;-62
2023/02/28 01:02:45;;;;;;;;;;;;;;;;;;5040299;28;1100;-63
2023/02/28 01:05:11;;;;;;;;;;;;;;;;;;5053691;28;1104;-65
2023/02/28 01:07:36;;;;;;;;;;;;;;;;;;5053833;28;1290;-66
2023/02/28 01:10:01;;;;;;;;;;;;;;;;;;5053678;28;1152;-65
2023/02/28 01:12:26;;;;;;;;;;;;;;;;;;5053500;28;1317;-67
2023/02/28 01:14:52;;;;;;;;;;;;;;;;;;5053459;28;1127;-67
2023/02/28 01:17:17;;;;;;;;;;;;;;;;;;5053995;28;1100;-65
2023/02/28 01:19:42;;;;;;;;;;;;;;;;;;5049015;28;1964;-68
2023/02/28 01:22:07;;;;;;;;;;;;;;;;;;5053511;28;1108;-67
2023/02/28 01:24:33;;;;;;;;;;;;;;;;;;5053635;28;1115;-65
2023/02/28 01:26:58;;;;;;;;;;;;;;;;;;5053186;28;1191;-66
2023/02/28 01:29:23;;;;;;;;;;;;;;;;;;5052949;28;1100;-65
2023/02/28 01:31:48;;;;;;;;;;;;;;;;;;5039787;28;1555;-66
2023/02/28 01:34:14;;;;;;;;;;;;;;;;;;5053181;28;1096;-65
2023/02/28 01:36:39;;;;;;;;;;;;;;;;;;5053102;28;1088;-66
2023/02/28 01:39:04;;;;;;;;;;;;;;;;;;5052918;28;1491;-66
2023/02/28 01:41:30;;;;;;;;;;;;;;;;;;5053082;28;1969;-66
2023/02/28 01:43:57;;;;;;;;;;;;;;;;;;5053119;28;1100;-67
2023/02/28 01:46:22;;;;;;;;;;;;;;;;;;5053234;28;1104;-68
2023/02/28 01:48:49;;;;;;;;;;;;;;;;;;5053130;28;1238;-67
2023/02/28 01:51:16;;;;;;;;;;;;;;;;;;5085103;28;1158;-67
2023/02/28 01:53:42;;;;;;;;;;;;;;;;;;5085186;28;1115;-67
2023/02/28 01:56:07;;;;;;;;;;;;;;;;;;5085135;28;1107;-65
2023/02/28 01:58:33;;;;;;;;;;;;;;;;;;5085165;28;1107;-67
2023/02/28 02:00:58;;;;;;;;;;;;;;;;;;5076643;28;1972;-67
2023/02/28 02:03:23;;;;;;;;;;;;;;;;;;5047566;28;1172;-66
2023/02/28 02:05:49;;;;;;;;;;;;;;;;;;5052632;28;1096;-66
2023/02/28 02:08:19;;;;;;;;;;;;;;;;;;5052451;28;1174;-67
2023/02/28 02:10:54;;;;;;;;;;;;;;;;;;5084955;28;1127;-66
2023/02/28 02:13:29;;;;;;;;;;;;;;;;;;5052560;28;1226;-66
2023/02/28 02:15:54;;;;;;;;;;;;;;;;;;5052671;28;1107;-66
2023/02/28 02:18:19;;;;;;;;;;;;;;;;;;5052106;28;1104;-65
2023/02/28 02:20:53;;;;;;;;;;;;;;;;;;5048016;28;1969;-67
2023/02/28 02:23:51;;;;;;;;;;;;;;;;;;5052931;28;1076;-67
2023/02/28 02:26:16;;;;;;;;;;;;;;;;;;5050103;28;2471;-67
2023/02/28 02:28:53;;;;;;;;;;;;;;;;;;5052179;28;1208;-66
2023/02/28 02:31:25;;;;;;;;;;;;;;;;;;5041281;28;1712;-66
2023/02/28 02:34:08;;;;;;;;;;;;;;;;;;5049887;28;1104;-65
2023/02/28 02:36:35;;;;;;;;;;;;;;;;;;5051836;28;1100;-61
2023/02/28 02:39:14;;;;;;;;;;;;;;;;;;5050653;28;1123;-64
2023/02/28 02:41:46;;;;;;;;;;;;;;;;;;5084067;28;1910;-67
2023/02/28 02:44:17;;;;;;;;;;;;;;;;;;5052424;28;1156;-65
2023/02/28 02:46:46;;;;;;;;;;;;;;;;;;5084032;28;1174;-68
2023/02/28 02:49:13;;;;;;;;;;;;;;;;;;5067435;28;1358;-66
2023/02/28 02:51:38;;;;;;;;;;;;;;;;;;5084015;28;1489;-67
2023/02/28 02:54:05;;;;;;;;;;;;;;;;;;5084319;28;1107;-67
2023/02/28 02:56:31;;;;;;;;;;;;;;;;;;5051662;28;1175;-67
2023/02/28 02:59:02;;;;;;;;;;;;;;;;;;5046721;28;1150;-66
2023/02/28 03:01:28;;;;;;;;;;;;;;;;;;5044731;28;1955;-66
2023/02/28 03:03:54;;;;;;;;;;;;;;;;;;5050004;28;1155;-67
2023/02/28 03:06:20;;;;;;;;;;;;;;;;;;5083756;28;1161;-66
2023/02/28 03:08:45;;;;;;;;;;;;;;;;;;5050310;28;1107;-67
2023/02/28 03:11:14;;;;;;;;;;;;;;;;;;5051645;28;1088;-68
2023/02/28 03:13:52;;;;;;;;;;;;;;;;;;5083293;28;1144;-66
2023/02/28 03:16:36;;;;;;;;;;;;;;;;;;5050401;28;1926;-68
2023/02/28 03:19:01;;;;;;;;;;;;;;;;;;5053399;28;1648;-68
2023/02/28 03:21:38;;;;;;;;;;;;;;;;;;5051325;28;1894;-68
2023/02/28 03:24:21;;;;;;;;;;;;;;;;;;5047651;28;1447;-64
2023/02/28 03:26:50;;;;;;;;;;;;;;;;;;5050911;28;1329;-67
2023/02/28 03:29:35;;;;;;;;;;;;;;;;;;5083605;28;1119;-69
2023/02/28 03:32:14;;;;;;;;;;;;;;;;;;5038104;28;1360;-68
2023/02/28 03:34:40;;;;;;;;;;;;;;;;;;5051163;28;1137;-69
2023/02/28 03:37:07;;;;;;;;;;;;;;;;;;5051070;28;1171;-69
2023/02/28 03:39:43;;;;;;;;;;;;;;;;;;5083346;28;1178;-69
2023/02/28 03:42:09;;;;;;;;;;;;;;;;;;5083237;28;1196;-69
2023/02/28 03:44:36;;;;;;;;;;;;;;;;;;5083079;28;1143;-61
2023/02/28 03:47:07;;;;;;;;;;;;;;;;;;5082974;28;1305;-65
2023/02/28 03:49:34;;;;;;;;;;;;;;;;;;5083663;28;1772;-62
2023/02/28 03:51:59;;;;;;;;;;;;;;;;;;5062859;28;1768;-69
2023/02/28 03:54:29;;;;;;;;;;;;;;;;;;5055598;28;1600;-69
2023/02/28 03:57:01;;;;;;;;;;;;;;;;;;5050784;28;1192;-69
2023/02/28 03:59:28;;;;;;;;;;;;;;;;;;5082376;28;1806;-68
2023/02/28 04:01:54;;;;;;;;;;;;;;;;;;5072863;28;1909;-68
2023/02/28 04:04:20;;;;;;;;;;;;;;;;;;5050953;28;1431;-69
2023/02/28 04:06:45;;;;;;;;;;;;;;;;;;5050753;28;1226;-68
2023/02/28 04:09:11;;;;;;;;;;;;;;;;;;5053385;28;1899;-65
2023/02/28 04:11:37;;;;;;;;;;;;;;;;;;5061295;28;1833;-69
2023/02/28 04:14:03;;;;;;;;;;;;;;;;;;5064408;28;1909;-69
2023/02/28 04:16:29;;;;;;;;;;;;;;;;;;5064128;28;1865;-69
2023/02/28 04:19:01;;;;;;;;;;;;;;;;;;5058757;28;1822;-69
2023/02/28 04:21:27;;;;;;;;;;;;;;;;;;5050591;28;1898;-68
2023/02/28 04:23:52;;;;;;;;;;;;;;;;;;5082974;28;1423;-67
2023/02/28 04:26:17;;;;;;;;;;;;;;;;;;5050831;28;1186;-66
2023/02/28 04:28:42;;;;;;;;;;;;;;;;;;5050247;28;1143;-67
2023/02/28 04:31:08;;;;;;;;;;;;;;;;;;5041602;28;1400;-66
2023/02/28 04:33:33;;;;;;;;;;;;;;;;;;5045555;28;1199;-67
2023/02/28 04:35:59;;;;;;;;;;;;;;;;;;5050716;28;1108;-67
2023/02/28 04:38:25;;;;;;;;;;;;;;;;;;5050886;28;1147;-68
2023/02/28 04:40:50;;;;;;;;;;;;;;;;;;5054484;28;1953;-67
2023/02/28 04:43:15;;;;;;;;;;;;;;;;;;5054240;28;1151;-67
2023/02/28 04:45:40;;;;;;;;;;;;;;;;;;5054266;28;1206;-67
2023/02/28 04:48:05;;;;;;;;;;;;;;;;;;5053975;28;1163;-68
2023/02/28 04:50:31;;;;;;;;;;;;;;;;;;5054183;28;1088;-68
2023/02/28 04:52:56;;;;;;;;;;;;;;;;;;5054253;28;1155;-68
2023/02/28 04:55:21;;;;;;;;;;;;;;;;;;5054220;28;1094;-66
2023/02/28 04:57:47;;;;;;;;;;;;;;;;;;5053687;28;1100;-67
2023/02/28 05:00:15;;;;;;;;;;;;;;;;;;5051330;28;2004;-68
2023/02/28 05:02:40;;;;;;;;;;;;;;;;;;5041721;28;1098;-60
2023/02/28 05:05:05;;;;;;;;;;;;;;;;;;5053922;28;1272;-68
2023/02/28 05:07:31;;;;;;;;;;;;;;;;;;5053722;28;1155;-68
2023/02/28 05:09:56;;;;;;;;;;;;;;;;;;5053895;28;1112;-67
2023/02/28 05:12:21;;;;;;;;;;;;;;;;;;5052937;28;1366;-67
2023/02/28 05:14:46;;;;;;;;;;;;;;;;;;5053802;28;1092;-67
2023/02/28 05:17:12;;;;;;;;;;;;;;;;;;5053580;28;2103;-60
2023/02/28 05:19:37;;;;;;;;;;;;;;;;;;5054661;28;1901;-63
2023/02/28 05:22:02;;;;;;;;;;;;;;;;;;5064179;28;1960;-67
2023/02/28 05:24:28;;;;;;;;;;;;;;;;;;5058775;28;1849;-68
2023/02/28 05:26:53;;;;;;;;;;;;;;;;;;5051641;28;1853;-65
2023/02/28 05:29:19;;;;;;;;;;;;;;;;;;5064743;28;1847;-66
2023/02/28 05:31:44;;;;;;;;;;;;;;;;;;5066779;28;1812;-64
2023/02/28 05:34:12;;;;;;;;;;;;;;;;;;5053338;28;1335;-65
2023/02/28 05:36:37;;;;;;;;;;;;;;;;;;5052819;28;1069;-66
2023/02/28 05:39:03;;;;;;;;;;;;;;;;;;5064988;28;1897;-60
2023/02/28 05:41:28;;;;;;;;;;;;;;;;;;5052939;28;2268;-66
2023/02/28 05:43:53;;;;;;;;;;;;;;;;;;5052911;28;1080;-65
2023/02/28 05:46:18;;;;;;;;;;;;;;;;;;5053075;28;1786;-67
2023/02/28 05:48:45;;;;;;;;;;;;;;;;;;5055639;28;1853;-66
2023/02/28 05:51:10;;;;;;;;;;;;;;;;;;5052328;28;1159;-59
2023/02/28 05:53:36;;;;;;;;;;;;;;;;;;5052864;28;1147;-66
2023/02/28 05:56:01;;;;;;;;;;;;;;;;;;5064578;28;1945;-64
2023/02/28 05:58:30;;;;;;;;;;;;;;;;;;5085091;28;1858;-66
2023/02/28 06:00:55;;;;;;;;;;;;;;;;;;5050357;28;1918;-65
2023/02/28 06:03:20;;;;;;;;;;;;;;;;;;5056568;28;1905;-63
2023/02/28 06:05:46;;;;;;;;;;;;;;;;;;5058968;28;1130;-62
2023/02/28 06:08:11;;;;;;;;;;;;;;;;;;5056864;28;1806;-64
2023/02/28 06:10:36;;;;;;;;;;;;;;;;;;5061911;28;1861;-67
2023/02/28 06:13:04;;;;;;;;;;;;;;;;;;5054562;28;1889;-72
2023/02/28 06:15:30;;;;;;;;;;;;;;;;;;5051756;28;1652;-67
2023/02/28 06:17:58;;;;;;;;;;;;;;;;;;5052449;28;1159;-67
2023/02/28 06:20:23;;;;;;;;;;;;;;;;;;5051922;28;1910;-65
2023/02/28 06:22:50;;;;;;;;;;;;;;;;;;5052407;28;1163;-72
2023/02/28 06:25:15;;;;;;;;;;;;;;;;;;5051850;28;1163;-65
2023/02/28 06:27:41;;;;;;;;;;;;;;;;;;5052105;28;1163;-63
2023/02/28 06:30:06;;;;;;;;;;;;;;;;;;5084061;28;1515;-74
2023/02/28 06:32:32;;;;;;;;;;;;;;;;;;5051436;28;1645;-62
2023/02/28 06:34:57;;;;;;;;;;;;;;;;;;5052123;28;1088;-62
2023/02/28 06:37:25;;;;;;;;;;;;;;;;;;5051628;28;1164;-61
2023/02/28 06:39:51;;;;;;;;;;;;;;;;;;5051162;28;1967;-61
2023/02/28 06:42:16;;;;;;;;;;;;;;;;;;5051272;28;1240;-62
2023/02/28 06:44:42;;;;;;;;;;;;;;;;;;5051451;28;1092;-61
2023/02/28 06:47:08;;;;;;;;;;;;;;;;;;5055080;28;1845;-61
2023/02/28 06:49:33;;;;;;;;;;;;;;;;;;5063120;28;2030;-59
2023/02/28 06:51:59;;;;;;;;;;;;;;;;;;5058016;28;1866;-59
2023/02/28 06:54:24;;;;;;;;;;;;;;;;;;5047622;28;1533;-60
2023/02/28 06:56:49;;;;;;;;;;;;;;;;;;5049806;28;1824;-60
2023/02/28 06:59:14;;;;;;;;;;;;;;;;;;5051719;28;1137;-60
2023/02/28 07:01:40;;;;;;;;;;;;;;;;;;5037556;28;1969;-59
2023/02/28 07:04:05;;;;;;;;;;;;;;;;;;5050220;28;1121;-60
2023/02/28 07:06:30;;;;;;;;;;;;;;;;;;5051171;28;1112;-60
2023/02/28 07:08:56;;;;;;;;;;;;;;;;;;5050541;28;1407;-59
2023/02/28 07:11:25;;;;;;;;;;;;;;;;;;5051090;28;1583;-60
2023/02/28 07:13:51;;;;;;;;;;;;;;;;;;5051111;28;1126;-59
2023/02/28 07:16:16;;;;;;;;;;;;;;;;;;5083358;28;1135;-59
2023/02/28 07:18:42;;;;;;;;;;;;;;;;;;5051346;28;1001;-59
2023/02/28 07:21:08;;;;;;;;;;;;;;;;;;5050797;28;1922;-60
2023/02/28 07:23:34;;;;;;;;;;;;;;;;;;5050764;28;1154;-60
2023/02/28 07:25:59;;;;;;;;;;;;;;;;;;5041675;28;1917;-60
2023/02/28 07:28:24;;;;;;;;;;;;;;;;;;5059719;28;1894;-61
2023/02/28 07:30:50;;;;;;;;;;;;;;;;;;5034411;28;1443;-60
2023/02/28 07:33:15;;;;;;;;;;;;;;;;;;5045625;28;1818;-61
2023/02/28 07:35:40;;;;;;;;;;;;;;;;;;5050257;28;1579;-58
2023/02/28 07:38:07;;;;;;;;;;;;;;;;;;5049473;28;1085;-61
2023/02/28 07:40:32;;;;;;;;;;;;;;;;;;5050226;28;1906;-61
2023/02/28 07:42:58;;;;;;;;;;;;;;;;;;5050665;28;1092;-59
2023/02/28 07:45:24;;;;;;;;;;;;;;;;;;5082709;28;1154;-61
2023/02/28 07:47:49;;;;;;;;;;;;;;;;;;5051031;28;1253;-61
2023/02/28 07:50:14;;;;;;;;;;;;;;;;;;5050666;28;1115;-61
2023/02/28 07:52:40;;;;;;;;;;;;;;;;;;5050961;28;1153;-61
2023/02/28 07:55:05;;;;;;;;;;;;;;;;;;5050333;28;1135;-61
2023/02/28 07:57:31;;;;;;;;;;;;;;;;;;5050896;28;1092;-61
2023/02/28 07:59:56;;;;;;;;;;;;;;;;;;5050544;28;1934;-60
2023/02/28 08:02:22;;;;;;;;;;;;;;;;;;5036467;28;1757;-61
2023/02/28 08:04:48;;;;;;;;;;;;;;;;;;5050734;28;1127;-61
2023/02/28 08:07:13;;;;;;;;;;;;;;;;;;5050290;28;1100;-61
2023/02/28 08:09:39;;;;;;;;;;;;;;;;;;5050319;28;1143;-59
2023/02/28 08:12:04;;;;;;;;;;;;;;;;;;5042551;28;1471;-61
2023/02/28 08:14:30;;;;;;;;;;;;;;;;;;5052487;28;1101;-61
2023/02/28 08:16:55;;;;;;;;;;;;;;;;;;5053195;28;1124;-61
2023/02/28 08:19:20;;;;;;;;;;;;;;;;;;5053984;28;1089;-62
2023/02/28 08:21:46;;;;;;;;;;;;;;;;;;5054675;28;1965;-61
2023/02/28 08:24:11;;;;;;;;;;;;;;;;;;5054179;28;1116;-61
2023/02/28 08:26:36;;;;;;;;;;;;;;;;;;5054403;28;1104;-61
2023/02/28 08:29:01;;;;;;;;;;;;;;;;;;5054081;28;1236;-61
2023/02/28 08:31:27;;;;;;;;;;;;;;;;;;5043286;28;1434;-60
2023/02/28 08:33:53;;;;;;;;;;;;;;;;;;5051212;28;1113;-59
2023/02/28 08:36:19;;;;;;;;;;;;;;;;;;5054322;28;1135;-60
2023/02/28 08:38:44;;;;;;;;;;;;;;;;;;5086006;28;1196;-61
2023/02/28 08:41:10;;;;;;;;;;;;;;;;;;5054113;28;1961;-61
2023/02/28 08:43:35;;;;;;;;;;;;;;;;;;5053772;28;1163;-61
2023/02/28 08:46:00;;;;;;;;;;;;;;;;;;5054279;28;1131;-61
2023/02/28 08:48:26;;;;;;;;;;;;;;;;;;5054150;28;1203;-61
2023/02/28 08:51:10;;;;;;;;;;;;;;;;;;5054218;28;1111;-57
2023/02/28 08:53:36;;;;;;;;;;;;;;;;;;5053611;28;1125;-61
2023/02/28 08:56:05;;;;;;;;;;;;;;;;;;5053748;28;1112;-61
2023/02/28 08:58:31;;;;;;;;;;;;;;;;;;5052401;28;1786;-60
2023/02/28 09:00:56;;;;;;;;;;;;;;;;;;5047246;28;1910;-61
2023/02/28 09:03:22;;;;;;;;;;;;;;;;;;5044602;28;1114;-61
2023/02/28 09:05:54;;;;;;;;;;;;;;;;;;5053574;28;1147;-61
2023/02/28 09:08:19;;;;;;;;;;;;;;;;;;5040711;28;1140;-59
2023/02/28 09:10:44;;;;;;;;;;;;;;;;;;5053550;28;1092;-60
2023/02/28 09:13:10;;;;;;;;;;;;;;;;;;5043933;28;1670;-58
2023/02/28 09:15:36;;;;;;;;;;;;;;;;;;5053282;28;1206;-61
2023/02/28 09:18:02;;;;;;;;;;;;;;;;;;5053621;28;1171;-61
2023/02/28 09:20:27;;;;;;;;;;;;;;;;;;5053402;28;1902;-61
2023/02/28 09:22:52;;;;;;;;;;;;;;;;;;5053534;28;1104;-61
2023/02/28 09:25:17;;;;;;;;;;;;;;;;;;5052522;28;1104;-61
2023/02/28 09:27:43;;;;;;;;;;;;;;;;;;5053569;28;1139;-60
2023/02/28 09:30:08;;;;;;;;;;;;;;;;;;5052905;28;999;-60
2023/02/28 09:32:34;;;;;;;;;;;;;;;;;;5051428;28;1851;-61
2023/02/28 09:34:59;;;;;;;;;;;;;;;;;;5052979;28;1094;-60
2023/02/28 09:37:30;;;;;;;;;;;;;;;;;;5052951;28;1195;-61
2023/02/28 09:39:56;;;;;;;;;;;;;;;;;;5052818;28;1906;-60
2023/02/28 09:42:30;;;;;;;;;;;;;;;;;;5052915;28;1096;-60
2023/02/28 09:44:55;;;;;;;;;;;;;;;;;;5084897;28;1115;-61
2023/02/28 09:47:23;;;;;;;;;;;;;;;;;;5085099;28;1103;-59
2023/02/28 09:49:48;;;;;;;;;;;;;;;;;;5052532;28;1137;-60
2023/02/28 09:52:15;;;;;;;;;;;;;;;;;;5085002;28;1115;-61
2023/02/28 09:54:41;;;;;;;;;;;;;;;;;;5084747;28;1127;-60
2023/02/28 09:57:08;;;;;;;;;;;;;;;;;;5053122;28;1108;-61
2023/02/28 09:59:45;;;;;;;;;;;;;;;;;;5084682;28;1111;-62
2023/02/28 10:02:29;;;;;;;;;;;;;;;;;;5038459;28;1999;-60
2023/02/28 10:04:57;;;;;;;;;;;;;;;;;;5051145;28;2673;-57
2023/02/28 10:07:28;;;;;;;;;;;;;;;;;;5084406;28;1165;-60
2023/02/28 10:09:54;;;;;;;;;;;;;;;;;;5051065;28;1628;-61
2023/02/28 10:12:20;;;;;;;;;;;;;;;;;;5074294;28;1380;-61
2023/02/28 10:14:46;;;;;;;;;;;;;;;;;;5051994;28;1183;-60
2023/02/28 10:17:16;;;;;;;;;;;;;;;;;;5052067;28;1163;-62
2023/02/28 10:20:00;;;;;;;;;;;;;;;;;;5084684;28;1201;-61
2023/02/28 10:22:28;;;;;;;;;;;;;;;;;;5051918;28;1112;-60
2023/02/28 10:24:56;;;;;;;;;;;;;;;;;;5052524;28;1140;-61
2023/02/28 10:27:25;;;;;;;;;;;;;;;;;;5052135;28;1107;-59
2023/02/28 10:29:51;;;;;;;;;;;;;;;;;;5052267;28;1428;-60
2023/02/28 10:32:17;;;;;;;;;;;;;;;;;;5038126;28;1459;-60
2023/02/28 10:34:43;;;;;;;;;;;;;;;;;;5052030;28;1134;-60
2023/02/28 10:37:08;;;;;;;;;;;;;;;;;;5051473;28;1270;-61
2023/02/28 10:39:44;;;;;;;;;;;;;;;;;;5051873;28;1241;-61
2023/02/28 10:42:21;;;;;;;;;;;;;;;;;;5051687;28;1980;-60
2023/02/28 10:44:47;;;;;;;;;;;;;;;;;;5051716;28;1115;-60
2023/02/28 10:47:16;;;;;;;;;;;;;;;;;;5052084;28;1096;-60
2023/02/28 10:49:45;;;;;;;;;;;;;;;;;;5083641;28;1163;-60
2023/02/28 10:52:10;;;;;;;;;;;;;;;;;;5083716;28;1423;-61
2023/02/28 10:54:37;;;;;;;;;;;;;;;;;;5051528;28;1199;-58
2023/02/28 10:57:06;;;;;;;;;;;;;;;;;;5051733;28;1012;-60
2023/02/28 10:59:31;;;;;;;;;;;;;;;;;;5051445;28;1108;-61
2023/02/28 11:01:57;;;;;;;;;;;;;;;;;;5037423;28;1910;-60
2023/02/28 11:04:22;;;;;;;;;;;;;;;;;;5051422;28;1166;-61
2023/02/28 11:06:48;;;;;;;;;;;;;;;;;;5051025;28;1486;-57
2023/02/28 11:09:23;;;;;;;;;;;;;;;;;;5049937;28;1171;-62
2023/02/28 11:11:49;;;;;;;;;;;;;;;;;;5077312;28;1712;-61
2023/02/28 11:14:21;;;;;;;;;;;;;;;;;;5051208;28;1158;-62
2023/02/28 11:16:46;;;;;;;;;;;;;;;;;;5083111;28;1280;-63
2023/02/28 11:19:17;;;;;;;;;;;;;;;;;;5051152;28;1119;-61
2023/02/28 11:21:45;;;;;;;;;;;;;;;;;;5083336;28;1926;-61
2023/02/28 11:24:22;;;;;;;;;;;;;;;;;;5082944;28;1194;-62
2023/02/28 11:26:48;;;;;;;;;;;;;;;;;;5083433;28;1103;-61
2023/02/28 11:29:20;;;;;;;;;;;;;;;;;;5051088;28;1456;-61
2023/02/28 11:32:02;;;;;;;;;;;;;;;;;;5038295;28;1519;-57
2023/02/28 11:34:27;;;;;;;;;;;;;;;;;;5038431;28;1157;-60
2023/02/28 11:36:58;;;;;;;;;;;;;;;;;;5050569;28;1123;-61
2023/02/28 11:39:24;;;;;;;;;;;;;;;;;;5050883;28;1163;-61
2023/02/28 11:41:58;;;;;;;;;;;;;;;;;;5082296;28;1913;-62
2023/02/28 11:44:30;;;;;;;;;;;;;;;;;;5050791;28;1175;-60
2023/02/28 11:47:13;;;;;;;;;;;;;;;;;;5065840;28;1192;-62
2023/02/28 11:50:08;;;;;;;;;;;;;;;;;;5050704;28;1171;-62
2023/02/28 11:52:45;;;;;;;;;;;;;;;;;;5065995;28;1678;-61
2023/02/28 11:55:40;;;;;;;;;;;;;;;;;;5050535;28;1255;-61
2023/02/28 11:58:11;;;;;;;;;;;;;;;;;;5053903;28;1496;-62
2023/02/28 12:00:36;;;;;;;;;;;;;;;;;;5047342;28;1910;-62
2023/02/28 12:03:15;;;;;;;;;;;;;;;;;;5039133;28;1160;-62
2023/02/28 12:05:49;;;;;;;;;;;;;;;;;;5082424;28;1189;-61
2023/02/28 12:08:15;;;;;;;;;;;;;;;;;;5049202;28;1195;-62
2023/02/28 12:10:52;;;;;;;;;;;;;;;;;;5050395;28;1310;-62
2023/02/28 12:13:33;;;;;;;;;;;;;;;;;;5038295;28;1136;-62
2023/02/28 12:16:02;;;;;;;;;;;;;;;;;;5082744;28;1175;-60
2023/02/28 12:18:39;;;;;;;;;;;;;;;;;;5050315;28;1112;-62
2023/02/28 12:21:08;;;;;;;;;;;;;;;;;;5050467;28;1967;-58
2023/02/28 12:23:36;;;;;;;;;;;;;;;;;;5082334;28;1142;-62
2023/02/28 12:26:20;;;;;;;;;;;;;;;;;;5050472;28;1155;-62
2023/02/28 12:28:54;;;;;;;;;;;;;;;;;;5050207;28;1302;-61
2023/02/28 12:31:21;;;;;;;;;;;;;;;;;;5074108;28;1450;-61
2023/02/28 12:33:53;;;;;;;;;;;;;;;;;;5043725;28;1093;-62
2023/02/28 12:36:21;;;;;;;;;;;;;;;;;;5082456;28;1119;-60
2023/02/28 12:38:47;;;;;;;;;;;;;;;;;;5050206;28;1178;-62
2023/02/28 12:41:12;;;;;;;;;;;;;;;;;;5050116;28;1913;-59
2023/02/28 12:43:42;;;;;;;;;;;;;;;;;;5048654;28;1133;-62
2023/02/28 12:46:10;;;;;;;;;;;;;;;;;;5082483;28;1183;-60
2023/02/28 12:48:46;;;;;;;;;;;;;;;;;;5082493;28;1139;-61
2023/02/28 12:51:11;;;;;;;;;;;;;;;;;;5082472;28;1194;-61
2023/02/28 12:53:45;;;;;;;;;;;;;;;;;;5082525;28;1352;-56
2023/02/28 12:56:22;;;;;;;;;;;;;;;;;;5050464;28;1099;-60
2023/02/28 12:59:11;;;;;;;;;;;;;;;;;;5082257;28;1115;-61
2023/02/28 13:01:39;;;;;;;;;;;;;;;;;;5045301;28;1971;-61
2023/02/28 13:04:06;;;;;;;;;;;;;;;;;;5049727;28;1163;-61
2023/02/28 13:06:50;;;;;;;;;;;;;;;;;;5052117;28;1348;-62
2023/02/28 13:09:16;;;;;;;;;;;;;;;;;;5053790;28;1009;-62
2023/02/28 13:11:41;;;;;;;;;;;;;;;;;;5043992;28;1729;-60
2023/02/28 13:14:16;;;;;;;;;;;;;;;;;;5053197;28;1188;-61
2023/02/28 13:17:00;;;;;;;;;;;;;;;;;;5053474;28;1107;-62
2023/02/28 13:19:26;;;;;;;;;;;;;;;;;;5053438;28;1088;-61
2023/02/28 13:21:51;;;;;;;;;;;;;;;;;;5085508;28;1917;-61
2023/02/28 13:24:36;;;;;;;;;;;;;;;;;;5085481;28;1190;-62
2023/02/28 13:27:01;;;;;;;;;;;;;;;;;;5053241;28;1108;-60
2023/02/28 13:29:44;;;;;;;;;;;;;;;;;;5053471;28;1080;-61
2023/02/28 13:32:09;;;;;;;;;;;;;;;;;;5039128;28;1428;-57
2023/02/28 13:35:04;;;;;;;;;;;;;;;;;;5053357;28;1155;-61
2023/02/28 13:37:29;;;;;;;;;;;;;;;;;;5075320;28;1484;-61
2023/02/28 13:40:23;;;;;;;;;;;;;;;;;;5053143;28;1291;-60
2023/02/28 13:42:50;;;;;;;;;;;;;;;;;;5054286;28;1405;-61
2023/02/28 13:45:28;;;;;;;;;;;;;;;;;;5052648;28;1108;-61
2023/02/28 13:47:54;;;;;;;;;;;;;;;;;;5052996;28;1103;-61
2023/02/28 13:50:23;;;;;;;;;;;;;;;;;;5084998;28;1162;-61
2023/02/28 13:53:04;;;;;;;;;;;;;;;;;;5053068;28;1333;-61
2023/02/28 13:55:48;;;;;;;;;;;;;;;;;;5052742;28;1301;-61
2023/02/28 13:58:16;;;;;;;;;;;;;;;;;;5052727;28;1123;-61
2023/02/28 14:00:47;;;;;;;;;;;;;;;;;;5049646;28;1959;-55
2023/02/28 14:03:30;;;;;;;;;;;;;;;;;;5041087;28;1164;-61
2023/02/28 14:06:14;;;;;;;;;;;;;;;;;;5052227;28;1096;-61
2023/02/28 14:08:44;;;;;;;;;;;;;;;;;;5052948;28;1108;-61
2023/02/28 14:11:15;;;;;;;;;;;;;;;;;;5074691;28;1459;-61
2023/02/28 14:13:44;;;;;;;;;;;;;;;;;;5084744;28;1473;-61
2023/02/28 14:16:10;;;;;;;;;;;;;;;;;;5084044;28;1123;-58
2023/02/28 14:18:35;;;;;;;;;;;;;;;;;;5084243;28;1128;-61
2023/02/28 14:21:09;;;;;;;;;;;;;;;;;;5052280;28;1966;-61
2023/02/28 14:23:44;;;;;;;;;;;;;;;;;;5052521;28;1195;-61
2023/02/28 14:26:28;;;;;;;;;;;;;;;;;;5052536;28;1263;-61
2023/02/28 14:28:57;;;;;;;;;;;;;;;;;;5052036;28;1096;-60
2023/02/28 14:31:28;;;;;;;;;;;;;;;;;;5077554;28;1513;-60
2023/02/28 14:33:59;;;;;;;;;;;;;;;;;;5045961;28;1605;-60
2023/02/28 14:36:26;;;;;;;;;;;;;;;;;;5051936;28;1139;-60
2023/02/28 14:38:53;;;;;;;;;;;;;;;;;;5051738;28;1032;-61
2023/02/28 14:41:39;;;;;;;;;;;;;;;;;;5052154;28;1906;-60
2023/02/28 14:44:13;;;;;;;;;;;;;;;;;;5051915;28;1335;-61
2023/02/28 14:46:39;;;;;;;;;;;;;;;;;;5051752;28;1076;-57
2023/02/28 14:49:04;;;;;;;;;;;;;;;;;;5051873;28;1286;-61
2023/02/28 14:51:30;;;;;;;;;;;;;;;;;;5083854;28;1307;-61
2023/02/28 14:53:59;;;;;;;;;;;;;;;;;;5084039;28;1161;-60
2023/02/28 14:56:29;;;;;;;;;;;;;;;;;;5051653;28;1198;-61
2023/02/28 14:58:55;;;;;;;;;;;;;;;;;;5083671;28;1147;-61
2023/02/28 15:01:21;;;;;;;;;;;;;;;;;;5045058;28;2016;-61
2023/02/28 15:03:47;;;;;;;;;;;;;;;;;;5044491;28;1020;-60
2023/02/28 15:06:17;;;;;;;;;;;;;;;;;;5051312;28;1167;-61
2023/02/28 15:08:42;;;;;;;;;;;;;;;;;;5051310;28;1051;-59
2023/02/28 15:11:08;;;;;;;;;;;;;;;;;;5041447;28;1513;-59
2023/02/28 15:13:36;;;;;;;;;;;;;;;;;;5051594;28;1155;-60
2023/02/28 15:16:03;;;;;;;;;;;;;;;;;;5051357;28;1187;-61
2023/02/28 15:18:44;;;;;;;;;;;;;;;;;;5083788;28;1241;-60
2023/02/28 15:21:13;;;;;;;;;;;;;;;;;;5050759;28;1882;-56
2023/02/28 15:23:39;;;;;;;;;;;;;;;;;;5050642;28;1456;-59
2023/02/28 15:26:04;;;;;;;;;;;;;;;;;;5083144;28;1139;-60
2023/02/28 15:28:29;;;;;;;;;;;;;;;;;;5083372;28;1095;-60
2023/02/28 15:30:56;;;;;;;;;;;;;;;;;;5048290;28;1810;-60
2023/02/28 15:33:25;;;;;;;;;;;;;;;;;;5040097;28;1215;-61
2023/02/28 15:35:50;;;;;;;;;;;;;;;;;;5050518;28;1167;-61
2023/02/28 15:38:24;;;;;;;;;;;;;;;;;;5082966;28;1119;-60
2023/02/28 15:40:53;;;;;;;;;;;;;;;;;;5050562;28;1981;-60
2023/02/28 15:43:30;;;;;;;;;;;;;;;;;;5082378;28;1200;-59
2023/02/28 15:45:56;;;;;;;;;;;;;;;;;;5051060;28;1080;-59
2023/02/28 15:48:22;;;;;;;;;;;;;;;;;;5082611;28;1103;-61
2023/02/28 15:50:49;;;;;;;;;;;;;;;;;;5051098;28;1084;-62
2023/02/28 15:53:15;;;;;;;;;;;;;;;;;;5050544;28;1160;-61
2023/02/28 15:55:41;;;;;;;;;;;;;;;;;;5082693;28;1111;-62
2023/02/28 15:58:08;;;;;;;;;;;;;;;;;;5050598;28;1140;-62
2023/02/28 16:00:33;;;;;;;;;;;;;;;;;;5083116;28;1965;-60
2023/02/28 16:02:58;;;;;;;;;;;;;;;;;;5036449;28;1583;-62
2023/02/28 16:05:27;;;;;;;;;;;;;;;;;;5050453;28;1140;-60
2023/02/28 16:07:53;;;;;;;;;;;;;;;;;;5050382;28;1163;-60
2023/02/28 16:10:19;;;;;;;;;;;;;;;;;;5044239;28;1532;-62
2023/02/28 16:12:44;;;;;;;;;;;;;;;;;;5047448;28;1144;-62
2023/02/28 16:15:15;;;;;;;;;;;;;;;;;;5083054;28;1115;-58
2023/02/28 16:17:40;;;;;;;;;;;;;;;;;;5050232;28;1108;-61
2023/02/28 16:20:24;;;;;;;;;;;;;;;;;;5050778;28;1152;-61
2023/02/28 16:22:50;;;;;;;;;;;;;;;;;;5050664;28;1163;-61
2023/02/28 16:25:19;;;;;;;;;;;;;;;;;;5050500;28;1252;-60
2023/02/28 16:27:45;;;;;;;;;;;;;;;;;;5050266;28;1096;-62
2023/02/28 16:30:15;;;;;;;;;;;;;;;;;;5082225;28;1178;-60
2023/02/28 16:32:40;;;;;;;;;;;;;;;;;;5036588;28;1737;-61
2023/02/28 16:35:06;;;;;;;;;;;;;;;;;;5053430;28;1080;-61
2023/02/28 16:37:31;;;;;;;;;;;;;;;;;;5086346;28;1163;-60
2023/02/28 16:39:56;;;;;;;;;;;;;;;;;;5053763;28;1136;-61
2023/02/28 16:42:25;;;;;;;;;;;;;;;;;;5053903;28;1921;-62
2023/02/28 16:44:51;;;;;;;;;;;;;;;;;;5054172;28;1120;-60
2023/02/28 16:47:16;;;;;;;;;;;;;;;;;;5086455;28;1151;-62
2023/02/28 16:49:42;;;;;;;;;;;;;;;;;;5054408;28;1153;-61
2023/02/28 16:52:08;;;;;;;;;;;;;;;;;;5060416;28;1822;-61
2023/02/28 16:54:33;;;;;;;;;;;;;;;;;;5051705;28;1084;-61
2023/02/28 16:56:59;;;;;;;;;;;;;;;;;;5052468;28;1116;-61
2023/02/28 16:59:24;;;;;;;;;;;;;;;;;;5053487;28;1080;-61
2023/02/28 17:01:50;;;;;;;;;;;;;;;;;;5043639;28;1918;-62
2023/02/28 17:04:15;;;;;;;;;;;;;;;;;;5049609;28;1092;-61
2023/02/28 17:06:41;;;;;;;;;;;;;;;;;;5050024;28;1544;-61
2023/02/28 17:09:14;;;;;;;;;;;;;;;;;;5056827;28;1860;-62
2023/02/28 17:11:39;;;;;;;;;;;;;;;;;;5057408;28;1929;-61